sensor_id;sensor_type;location;lat;lon;timestamp;temperature;humidity
5802;DHT22;2927;49.366;8.530;2023-12-20T00:00:55;5.10;99.90
5802;DHT22;2927;49.366;8.530;2023-12-20T00:03:21;5.10;99.90
5802;DHT22;2927;49.366;8.530;2023-12-20T00:05:47;5.10;99.90
5802;DHT22;2927;49.366;8.530;2023-12-20T00:08:13;5.10;99.90
5802;DHT22;2927;49.366;8.530;2023-12-20T00:10:38;5.10;99.90
5802;DHT22;2927;49.366;8.530;2023-12-20T00:13:04;5.10;99.90
5802;DHT22;2927;49.366;8.530;2023-12-20T00:15:30;5.10;99.90
5802;DHT22;2927;49.366;8.530;2023-12-20T00:17:56;5.10;99.90
5802;DHT22;2927;49.366;8.530;2023-12-20T00:20:21;5.10;99.90
5802;DHT22;2927;49.366;8.530;2023-12-20T00:22:47;5.10;99.90
5802;DHT22;2927;49.366;8.530;2023-12-20T00:25:12;5.10;99.90
5802;DHT22;2927;49.366;8.530;2023-12-20T00:27:38;5.10;99.90
5802;DHT22;2927;49.366;8.530;2023-12-20T00:30:04;5.10;99.90
5802;DHT22;2927;49.366;8.530;2023-12-20T00:32:29;5.10;99.90
5802;DHT22;2927;49.366;8.530;2023-12-20T00:34:55;5.10;99.90
5802;DHT22;2927;49.366;8.530;2023-12-20T00:37:21;5.10;99.90
5802;DHT22;2927;49.366;8.530;2023-12-20T00:39:47;5.10;99.90
5802;DHT22;2927;49.366;8.530;2023-12-20T00:42:13;5.10;99.90
5802;DHT22;2927;49.366;8.530;2023-12-20T00:44:38;5.10;99.90
5802;DHT22;2927;49.366;8.530;2023-12-20T00:47:04;5.10;99.90
5802;DHT22;2927;49.366;8.530;2023-12-20T00:49:30;5.10;99.90
5802;DHT22;2927;49.366;8.530;2023-12-20T00:51:55;5.10;99.90
5802;DHT22;2927;49.366;8.530;2023-12-20T00:54:21;5.10;99.90
5802;DHT22;2927;49.366;8.530;2023-12-20T00:56:46;5.10;99.90
5802;DHT22;2927;49.366;8.530;2023-12-20T00:59:12;5.10;99.90
5802;DHT22;2927;49.366;8.530;2023-12-20T01:01:37;5.20;99.90
5802;DHT22;2927;49.366;8.530;2023-12-20T01:04:03;5.10;99.90
5802;DHT22;2927;49.366;8.530;2023-12-20T01:06:29;5.20;99.90
5802;DHT22;2927;49.366;8.530;2023-12-20T01:08:55;5.20;99.90
5802;DHT22;2927;49.366;8.530;2023-12-20T01:11:20;5.20;99.90
5802;DHT22;2927;49.366;8.530;2023-12-20T01:13:47;5.20;99.90
5802;DHT22;2927;49.366;8.530;2023-12-20T01:16:13;5.20;99.90
5802;DHT22;2927;49.366;8.530;2023-12-20T01:18:38;5.20;99.90
5802;DHT22;2927;49.366;8.530;2023-12-20T01:21:04;5.20;99.90
5802;DHT22;2927;49.366;8.530;2023-12-20T01:23:30;5.20;99.90
5802;DHT22;2927;49.366;8.530;2023-12-20T01:25:56;5.20;99.90
5802;DHT22;2927;49.366;8.530;2023-12-20T01:28:21;5.20;99.90
5802;DHT22;2927;49.366;8.530;2023-12-20T01:30:47;5.20;99.90
5802;DHT22;2927;49.366;8.530;2023-12-20T01:33:12;5.20;99.90
5802;DHT22;2927;49.366;8.530;2023-12-20T01:35:38;5.20;99.90
5802;DHT22;2927;49.366;8.530;2023-12-20T01:38:03;5.20;99.90
5802;DHT22;2927;49.366;8.530;2023-12-20T01:40:29;5.20;99.90
5802;DHT22;2927;49.366;8.530;2023-12-20T01:42:59;5.20;99.90
5802;DHT22;2927;49.366;8.530;2023-12-20T01:45:25;5.20;99.90
5802;DHT22;2927;49.366;8.530;2023-12-20T01:47:50;5.10;99.90
5802;DHT22;2927;49.366;8.530;2023-12-20T01:50:16;5.10;99.90
5802;DHT22;2927;49.366;8.530;2023-12-20T01:52:43;5.10;99.90
5802;DHT22;2927;49.366;8.530;2023-12-20T01:55:09;5.10;99.90
5802;DHT22;2927;49.366;8.530;2023-12-20T01:57:40;5.10;99.90
5802;DHT22;2927;49.366;8.530;2023-12-20T02:00:06;5.10;99.90
5802;DHT22;2927;49.366;8.530;2023-12-20T02:02:36;5.10;99.90
5802;DHT22;2927;49.366;8.530;2023-12-20T02:05:05;5.10;99.90
5802;DHT22;2927;49.366;8.530;2023-12-20T02:07:31;5.00;99.90
5802;DHT22;2927;49.366;8.530;2023-12-20T02:10:00;5.00;99.90
5802;DHT22;2927;49.366;8.530;2023-12-20T02:12:26;5.00;99.90
5802;DHT22;2927;49.366;8.530;2023-12-20T02:14:52;5.00;99.90
5802;DHT22;2927;49.366;8.530;2023-12-20T02:17:20;5.10;99.90
5802;DHT22;2927;49.366;8.530;2023-12-20T02:19:45;5.00;99.90
5802;DHT22;2927;49.366;8.530;2023-12-20T02:22:11;5.00;99.90
5802;DHT22;2927;49.366;8.530;2023-12-20T02:24:37;5.00;99.90
5802;DHT22;2927;49.366;8.530;2023-12-20T02:27:03;5.00;99.90
5802;DHT22;2927;49.366;8.530;2023-12-20T02:29:31;5.00;99.90
5802;DHT22;2927;49.366;8.530;2023-12-20T02:31:57;5.00;99.90
5802;DHT22;2927;49.366;8.530;2023-12-20T02:34:22;5.00;99.90
5802;DHT22;2927;49.366;8.530;2023-12-20T02:36:48;5.00;99.90
5802;DHT22;2927;49.366;8.530;2023-12-20T02:39:14;5.00;99.90
5802;DHT22;2927;49.366;8.530;2023-12-20T02:41:39;5.00;99.90
5802;DHT22;2927;49.366;8.530;2023-12-20T02:44:05;5.00;99.90
5802;DHT22;2927;49.366;8.530;2023-12-20T02:46:30;5.00;99.90
5802;DHT22;2927;49.366;8.530;2023-12-20T02:48:56;5.00;99.90
5802;DHT22;2927;49.366;8.530;2023-12-20T02:51:21;5.00;99.90
5802;DHT22;2927;49.366;8.530;2023-12-20T02:53:47;5.00;99.90
5802;DHT22;2927;49.366;8.530;2023-12-20T02:56:13;5.00;99.90
5802;DHT22;2927;49.366;8.530;2023-12-20T02:58:40;5.00;99.90
5802;DHT22;2927;49.366;8.530;2023-12-20T03:01:05;5.00;99.90
5802;DHT22;2927;49.366;8.530;2023-12-20T03:03:31;5.00;99.90
5802;DHT22;2927;49.366;8.530;2023-12-20T03:05:57;5.00;99.90
5802;DHT22;2927;49.366;8.530;2023-12-20T03:08:23;5.00;99.90
5802;DHT22;2927;49.366;8.530;2023-12-20T03:10:48;5.00;99.90
5802;DHT22;2927;49.366;8.530;2023-12-20T03:13:14;5.00;99.90
5802;DHT22;2927;49.366;8.530;2023-12-20T03:15:40;5.00;99.90
5802;DHT22;2927;49.366;8.530;2023-12-20T03:18:05;5.10;99.90
5802;DHT22;2927;49.366;8.530;2023-12-20T03:20:31;5.10;99.90
5802;DHT22;2927;49.366;8.530;2023-12-20T03:23:00;5.00;99.90
5802;DHT22;2927;49.366;8.530;2023-12-20T03:25:25;5.00;99.90
5802;DHT22;2927;49.366;8.530;2023-12-20T03:27:51;5.00;99.90
5802;DHT22;2927;49.366;8.530;2023-12-20T03:30:17;5.00;99.90
5802;DHT22;2927;49.366;8.530;2023-12-20T03:32:43;5.00;99.90
5802;DHT22;2927;49.366;8.530;2023-12-20T03:35:09;5.00;99.90
5802;DHT22;2927;49.366;8.530;2023-12-20T03:37:34;5.00;99.90
5802;DHT22;2927;49.366;8.530;2023-12-20T03:40:00;5.00;99.90
5802;DHT22;2927;49.366;8.530;2023-12-20T03:42:25;5.00;99.90
5802;DHT22;2927;49.366;8.530;2023-12-20T03:44:51;5.00;99.90
5802;DHT22;2927;49.366;8.530;2023-12-20T03:47:17;5.00;99.90
5802;DHT22;2927;49.366;8.530;2023-12-20T03:49:42;5.00;99.90
5802;DHT22;2927;49.366;8.530;2023-12-20T03:52:08;5.00;99.90
5802;DHT22;2927;49.366;8.530;2023-12-20T03:54:35;5.00;99.90
5802;DHT22;2927;49.366;8.530;2023-12-20T03:57:00;5.00;99.90
5802;DHT22;2927;49.366;8.530;2023-12-20T03:59:26;5.00;99.90
5802;DHT22;2927;49.366;8.530;2023-12-20T04:01:52;5.00;99.90
5802;DHT22;2927;49.366;8.530;2023-12-20T04:04:17;5.00;99.90
5802;DHT22;2927;49.366;8.530;2023-12-20T04:06:43;5.00;99.90
5802;DHT22;2927;49.366;8.530;2023-12-20T04:09:09;5.00;99.90
5802;DHT22;2927;49.366;8.530;2023-12-20T04:11:34;5.00;99.90
5802;DHT22;2927;49.366;8.530;2023-12-20T04:14:00;5.00;99.90
5802;DHT22;2927;49.366;8.530;2023-12-20T04:16:26;5.00;99.90
5802;DHT22;2927;49.366;8.530;2023-12-20T04:18:52;5.00;99.90
5802;DHT22;2927;49.366;8.530;2023-12-20T04:21:18;5.00;99.90
5802;DHT22;2927;49.366;8.530;2023-12-20T04:23:43;5.00;99.90
5802;DHT22;2927;49.366;8.530;2023-12-20T04:26:09;5.00;99.90
5802;DHT22;2927;49.366;8.530;2023-12-20T04:28:35;5.00;99.90
5802;DHT22;2927;49.366;8.530;2023-12-20T04:31:00;5.00;99.90
5802;DHT22;2927;49.366;8.530;2023-12-20T04:33:26;5.00;99.90
5802;DHT22;2927;49.366;8.530;2023-12-20T04:35:52;5.10;99.90
5802;DHT22;2927;49.366;8.530;2023-12-20T04:38:17;5.10;99.90
5802;DHT22;2927;49.366;8.530;2023-12-20T04:40:43;5.10;99.90
5802;DHT22;2927;49.366;8.530;2023-12-20T04:43:08;5.10;99.90
5802;DHT22;2927;49.366;8.530;2023-12-20T04:45:34;5.10;99.90
5802;DHT22;2927;49.366;8.530;2023-12-20T04:48:00;5.10;99.90
5802;DHT22;2927;49.366;8.530;2023-12-20T04:50:26;5.10;99.90
5802;DHT22;2927;49.366;8.530;2023-12-20T04:52:51;5.10;99.90
5802;DHT22;2927;49.366;8.530;2023-12-20T04:55:17;5.10;99.90
5802;DHT22;2927;49.366;8.530;2023-12-20T04:57:43;5.10;99.90
5802;DHT22;2927;49.366;8.530;2023-12-20T05:00:09;5.20;99.90
5802;DHT22;2927;49.366;8.530;2023-12-20T05:02:35;5.20;99.90
5802;DHT22;2927;49.366;8.530;2023-12-20T05:05:01;5.20;99.90
5802;DHT22;2927;49.366;8.530;2023-12-20T05:07:26;5.10;99.90
5802;DHT22;2927;49.366;8.530;2023-12-20T05:09:52;5.20;99.90
5802;DHT22;2927;49.366;8.530;2023-12-20T05:12:18;5.20;99.90
5802;DHT22;2927;49.366;8.530;2023-12-20T05:14:44;5.20;99.90
5802;DHT22;2927;49.366;8.530;2023-12-20T05:17:09;5.20;99.90
5802;DHT22;2927;49.366;8.530;2023-12-20T05:19:35;5.10;99.90
5802;DHT22;2927;49.366;8.530;2023-12-20T05:22:01;5.10;99.90
5802;DHT22;2927;49.366;8.530;2023-12-20T05:24:27;5.10;99.90
5802;DHT22;2927;49.366;8.530;2023-12-20T05:26:53;5.20;99.90
5802;DHT22;2927;49.366;8.530;2023-12-20T05:29:19;5.20;99.90
5802;DHT22;2927;49.366;8.530;2023-12-20T05:31:44;5.30;99.90
5802;DHT22;2927;49.366;8.530;2023-12-20T05:34:10;5.30;99.90
5802;DHT22;2927;49.366;8.530;2023-12-20T05:36:36;5.40;99.90
5802;DHT22;2927;49.366;8.530;2023-12-20T05:39:02;5.50;99.90
5802;DHT22;2927;49.366;8.530;2023-12-20T05:41:29;5.50;99.90
5802;DHT22;2927;49.366;8.530;2023-12-20T05:43:55;5.50;99.90
5802;DHT22;2927;49.366;8.530;2023-12-20T05:46:21;5.50;99.90
5802;DHT22;2927;49.366;8.530;2023-12-20T05:48:47;5.50;99.90
5802;DHT22;2927;49.366;8.530;2023-12-20T05:51:12;5.60;99.90
5802;DHT22;2927;49.366;8.530;2023-12-20T05:53:38;5.60;99.90
5802;DHT22;2927;49.366;8.530;2023-12-20T05:56:04;5.60;99.90
5802;DHT22;2927;49.366;8.530;2023-12-20T05:58:30;5.60;99.90
5802;DHT22;2927;49.366;8.530;2023-12-20T06:00:55;5.60;99.90
5802;DHT22;2927;49.366;8.530;2023-12-20T06:03:21;5.60;99.90
5802;DHT22;2927;49.366;8.530;2023-12-20T06:05:46;5.60;99.90
5802;DHT22;2927;49.366;8.530;2023-12-20T06:08:12;5.60;99.90
5802;DHT22;2927;49.366;8.530;2023-12-20T06:10:38;5.70;99.90
5802;DHT22;2927;49.366;8.530;2023-12-20T06:13:03;5.60;99.90
5802;DHT22;2927;49.366;8.530;2023-12-20T06:15:32;5.70;99.90
5802;DHT22;2927;49.366;8.530;2023-12-20T06:17:59;5.70;99.90
5802;DHT22;2927;49.366;8.530;2023-12-20T06:20:24;5.60;99.90
5802;DHT22;2927;49.366;8.530;2023-12-20T06:22:50;5.70;99.90
5802;DHT22;2927;49.366;8.530;2023-12-20T06:25:16;5.70;99.90
5802;DHT22;2927;49.366;8.530;2023-12-20T06:27:42;5.70;99.90
5802;DHT22;2927;49.366;8.530;2023-12-20T06:30:08;5.70;99.90
5802;DHT22;2927;49.366;8.530;2023-12-20T06:32:36;5.80;99.90
5802;DHT22;2927;49.366;8.530;2023-12-20T06:35:04;5.70;99.90
5802;DHT22;2927;49.366;8.530;2023-12-20T06:37:30;5.70;99.90
5802;DHT22;2927;49.366;8.530;2023-12-20T06:39:56;5.70;99.90
5802;DHT22;2927;49.366;8.530;2023-12-20T06:42:22;5.60;99.90
5802;DHT22;2927;49.366;8.530;2023-12-20T06:44:48;5.60;99.90
5802;DHT22;2927;49.366;8.530;2023-12-20T06:47:13;5.50;99.90
5802;DHT22;2927;49.366;8.530;2023-12-20T06:49:40;5.50;99.90
5802;DHT22;2927;49.366;8.530;2023-12-20T06:52:05;5.40;99.90
5802;DHT22;2927;49.366;8.530;2023-12-20T06:54:31;5.40;99.90
5802;DHT22;2927;49.366;8.530;2023-12-20T06:56:59;5.40;99.90
5802;DHT22;2927;49.366;8.530;2023-12-20T06:59:25;5.40;99.90
5802;DHT22;2927;49.366;8.530;2023-12-20T07:01:51;5.40;99.90
5802;DHT22;2927;49.366;8.530;2023-12-20T07:04:17;5.40;99.90
5802;DHT22;2927;49.366;8.530;2023-12-20T07:06:48;5.40;99.90
5802;DHT22;2927;49.366;8.530;2023-12-20T07:09:14;5.40;99.90
5802;DHT22;2927;49.366;8.530;2023-12-20T07:11:39;5.40;99.90
5802;DHT22;2927;49.366;8.530;2023-12-20T07:14:05;5.30;99.90
5802;DHT22;2927;49.366;8.530;2023-12-20T07:16:31;5.30;99.90
5802;DHT22;2927;49.366;8.530;2023-12-20T07:18:57;5.20;99.90
5802;DHT22;2927;49.366;8.530;2023-12-20T07:21:23;5.10;99.90
5802;DHT22;2927;49.366;8.530;2023-12-20T07:23:48;5.00;99.90
5802;DHT22;2927;49.366;8.530;2023-12-20T07:26:15;4.90;99.90
5802;DHT22;2927;49.366;8.530;2023-12-20T07:28:40;4.90;99.90
5802;DHT22;2927;49.366;8.530;2023-12-20T07:31:06;4.80;99.90
5802;DHT22;2927;49.366;8.530;2023-12-20T07:33:31;4.80;99.90
5802;DHT22;2927;49.366;8.530;2023-12-20T07:35:57;4.80;99.90
5802;DHT22;2927;49.366;8.530;2023-12-20T07:38:24;4.70;99.90
5802;DHT22;2927;49.366;8.530;2023-12-20T07:40:49;4.70;99.90
5802;DHT22;2927;49.366;8.530;2023-12-20T07:43:15;4.60;99.90
5802;DHT22;2927;49.366;8.530;2023-12-20T07:45:41;4.70;99.90
5802;DHT22;2927;49.366;8.530;2023-12-20T07:48:07;4.70;99.90
5802;DHT22;2927;49.366;8.530;2023-12-20T07:50:32;4.70;99.90
5802;DHT22;2927;49.366;8.530;2023-12-20T07:52:58;4.60;99.90
5802;DHT22;2927;49.366;8.530;2023-12-20T07:55:26;5.00;99.90
5802;DHT22;2927;49.366;8.530;2023-12-20T07:57:52;6.00;99.90
5802;DHT22;2927;49.366;8.530;2023-12-20T08:00:17;6.70;99.90
5802;DHT22;2927;49.366;8.530;2023-12-20T08:02:43;7.50;99.90
5802;DHT22;2927;49.366;8.530;2023-12-20T08:05:09;8.30;99.90
5802;DHT22;2927;49.366;8.530;2023-12-20T08:07:35;9.00;99.90
5802;DHT22;2927;49.366;8.530;2023-12-20T08:10:00;9.50;1.00
5802;DHT22;2927;49.366;8.530;2023-12-20T08:12:26;9.70;99.90
5802;DHT22;2927;49.366;8.530;2023-12-20T08:14:53;10.10;1.00
5802;DHT22;2927;49.366;8.530;2023-12-20T08:17:18;10.40;1.00
5802;DHT22;2927;49.366;8.530;2023-12-20T08:19:44;10.90;1.00
5802;DHT22;2927;49.366;8.530;2023-12-20T08:22:11;11.20;99.90
5802;DHT22;2927;49.366;8.530;2023-12-20T08:24:37;11.40;1.00
5802;DHT22;2927;49.366;8.530;2023-12-20T08:27:04;11.80;1.00
5802;DHT22;2927;49.366;8.530;2023-12-20T08:29:30;11.80;1.00
5802;DHT22;2927;49.366;8.530;2023-12-20T08:31:59;12.40;99.90
5802;DHT22;2927;49.366;8.530;2023-12-20T08:34:24;12.90;99.90
5802;DHT22;2927;49.366;8.530;2023-12-20T08:36:50;12.90;99.90
5802;DHT22;2927;49.366;8.530;2023-12-20T08:39:16;12.30;1.00
5802;DHT22;2927;49.366;8.530;2023-12-20T08:41:42;11.10;1.00
5802;DHT22;2927;49.366;8.530;2023-12-20T08:44:08;10.00;1.00
5802;DHT22;2927;49.366;8.530;2023-12-20T08:46:34;8.90;79.30
5802;DHT22;2927;49.366;8.530;2023-12-20T08:49:04;8.20;1.00
5802;DHT22;2927;49.366;8.530;2023-12-20T08:51:31;7.70;1.00
5802;DHT22;2927;49.366;8.530;2023-12-20T08:53:57;7.40;1.00
5802;DHT22;2927;49.366;8.530;2023-12-20T08:56:24;7.00;1.00
5802;DHT22;2927;49.366;8.530;2023-12-20T08:58:49;6.80;1.00
5802;DHT22;2927;49.366;8.530;2023-12-20T09:01:15;6.60;99.90
5802;DHT22;2927;49.366;8.530;2023-12-20T09:03:41;6.40;99.90
5802;DHT22;2927;49.366;8.530;2023-12-20T09:06:06;6.30;1.00
5802;DHT22;2927;49.366;8.530;2023-12-20T09:08:32;6.60;1.00
5802;DHT22;2927;49.366;8.530;2023-12-20T09:10:59;7.90;99.90
5802;DHT22;2927;49.366;8.530;2023-12-20T09:13:25;8.10;1.00
5802;DHT22;2927;49.366;8.530;2023-12-20T09:15:55;8.80;1.00
5802;DHT22;2927;49.366;8.530;2023-12-20T09:18:20;10.00;1.00
5802;DHT22;2927;49.366;8.530;2023-12-20T09:20:46;9.80;60.80
5802;DHT22;2927;49.366;8.530;2023-12-20T09:23:11;9.20;1.00
5802;DHT22;2927;49.366;8.530;2023-12-20T09:25:37;8.90;1.00
5802;DHT22;2927;49.366;8.530;2023-12-20T09:28:03;8.60;1.00
5802;DHT22;2927;49.366;8.530;2023-12-20T09:30:28;8.40;99.90
5802;DHT22;2927;49.366;8.530;2023-12-20T09:32:55;8.30;99.90
5802;DHT22;2927;49.366;8.530;2023-12-20T09:35:21;8.10;1.00
5802;DHT22;2927;49.366;8.530;2023-12-20T09:37:46;7.90;99.90
5802;DHT22;2927;49.366;8.530;2023-12-20T09:40:13;7.70;1.00
5802;DHT22;2927;49.366;8.530;2023-12-20T09:45:15;7.80;1.00
5802;DHT22;2927;49.366;8.530;2023-12-20T09:47:43;7.80;1.00
5802;DHT22;2927;49.366;8.530;2023-12-20T09:50:09;7.80;99.90
5802;DHT22;2927;49.366;8.530;2023-12-20T09:52:36;7.60;99.90
5802;DHT22;2927;49.366;8.530;2023-12-20T09:55:03;7.70;99.90
5802;DHT22;2927;49.366;8.530;2023-12-20T09:57:31;7.50;1.00
5802;DHT22;2927;49.366;8.530;2023-12-20T09:59:57;7.40;1.00
5802;DHT22;2927;49.366;8.530;2023-12-20T10:02:25;7.40;1.00
5802;DHT22;2927;49.366;8.530;2023-12-20T10:04:54;7.60;99.90
5802;DHT22;2927;49.366;8.530;2023-12-20T10:07:19;7.60;1.00
5802;DHT22;2927;49.366;8.530;2023-12-20T10:09:46;7.60;1.00
5802;DHT22;2927;49.366;8.530;2023-12-20T10:12:12;7.70;1.00
5802;DHT22;2927;49.366;8.530;2023-12-20T10:14:39;8.00;1.00
5802;DHT22;2927;49.366;8.530;2023-12-20T10:17:05;8.20;99.90
5802;DHT22;2927;49.366;8.530;2023-12-20T10:19:34;8.40;1.00
5802;DHT22;2927;49.366;8.530;2023-12-20T10:21:59;8.50;99.90
5802;DHT22;2927;49.366;8.530;2023-12-20T10:24:28;8.70;99.90
5802;DHT22;2927;49.366;8.530;2023-12-20T10:27:07;8.70;1.00
5802;DHT22;2927;49.366;8.530;2023-12-20T10:29:36;8.90;1.50
5802;DHT22;2927;49.366;8.530;2023-12-20T10:32:24;9.00;1.00
5802;DHT22;2927;49.366;8.530;2023-12-20T10:34:51;8.90;1.00
5802;DHT22;2927;49.366;8.530;2023-12-20T10:37:16;8.80;1.00
5802;DHT22;2927;49.366;8.530;2023-12-20T10:39:50;8.60;99.90
5802;DHT22;2927;49.366;8.530;2023-12-20T10:42:20;8.50;1.00
5802;DHT22;2927;49.366;8.530;2023-12-20T10:44:47;8.30;1.00
5802;DHT22;2927;49.366;8.530;2023-12-20T10:47:13;8.00;1.00
5802;DHT22;2927;49.366;8.530;2023-12-20T10:49:39;7.80;74.50
5802;DHT22;2927;49.366;8.530;2023-12-20T10:52:06;7.70;1.00
5802;DHT22;2927;49.366;8.530;2023-12-20T10:54:33;7.60;99.90
5802;DHT22;2927;49.366;8.530;2023-12-20T10:56:58;7.50;99.90
5802;DHT22;2927;49.366;8.530;2023-12-20T10:59:25;7.50;99.90
5802;DHT22;2927;49.366;8.530;2023-12-20T11:01:54;7.40;1.00
5802;DHT22;2927;49.366;8.530;2023-12-20T11:04:31;7.40;99.90
5802;DHT22;2927;49.366;8.530;2023-12-20T11:07:08;7.40;99.90
5802;DHT22;2927;49.366;8.530;2023-12-20T11:09:41;7.40;1.00
5802;DHT22;2927;49.366;8.530;2023-12-20T11:14:50;7.50;1.00
5802;DHT22;2927;49.366;8.530;2023-12-20T11:17:16;7.40;1.00
5802;DHT22;2927;49.366;8.530;2023-12-20T11:20:07;7.30;99.90
5802;DHT22;2927;49.366;8.530;2023-12-20T11:22:34;7.30;1.00
5802;DHT22;2927;49.366;8.530;2023-12-20T11:25:08;7.20;99.90
5802;DHT22;2927;49.366;8.530;2023-12-20T11:27:35;7.20;99.90
5802;DHT22;2927;49.366;8.530;2023-12-20T11:30:03;7.20;1.00
5802;DHT22;2927;49.366;8.530;2023-12-20T11:32:31;7.10;90.40
5802;DHT22;2927;49.366;8.530;2023-12-20T11:35:01;7.00;99.90
5802;DHT22;2927;49.366;8.530;2023-12-20T11:37:41;7.00;1.00
5802;DHT22;2927;49.366;8.530;2023-12-20T11:40:15;7.00;1.00
5802;DHT22;2927;49.366;8.530;2023-12-20T11:42:44;7.00;99.90
5802;DHT22;2927;49.366;8.530;2023-12-20T11:45:13;7.00;1.00
5802;DHT22;2927;49.366;8.530;2023-12-20T11:47:42;7.10;99.90
5802;DHT22;2927;49.366;8.530;2023-12-20T11:50:08;7.20;1.00
5802;DHT22;2927;49.366;8.530;2023-12-20T11:52:33;7.20;99.90
5802;DHT22;2927;49.366;8.530;2023-12-20T11:54:59;7.20;99.90
5802;DHT22;2927;49.366;8.530;2023-12-20T11:57:25;7.30;99.90
5802;DHT22;2927;49.366;8.530;2023-12-20T11:59:51;7.30;1.00
5802;DHT22;2927;49.366;8.530;2023-12-20T12:02:16;7.30;1.00
5802;DHT22;2927;49.366;8.530;2023-12-20T12:04:42;7.30;1.00
5802;DHT22;2927;49.366;8.530;2023-12-20T12:07:07;7.20;1.00
5802;DHT22;2927;49.366;8.530;2023-12-20T12:09:34;7.20;1.00
5802;DHT22;2927;49.366;8.530;2023-12-20T12:12:00;7.10;1.00
5802;DHT22;2927;49.366;8.530;2023-12-20T12:14:25;7.10;1.00
5802;DHT22;2927;49.366;8.530;2023-12-20T12:16:52;7.10;1.00
5802;DHT22;2927;49.366;8.530;2023-12-20T12:19:22;7.00;1.00
5802;DHT22;2927;49.366;8.530;2023-12-20T12:22:10;6.90;1.00
5802;DHT22;2927;49.366;8.530;2023-12-20T12:24:46;6.90;1.00
5802;DHT22;2927;49.366;8.530;2023-12-20T12:27:12;6.80;1.00
5802;DHT22;2927;49.366;8.530;2023-12-20T12:29:38;6.80;99.90
5802;DHT22;2927;49.366;8.530;2023-12-20T12:32:08;6.80;1.00
5802;DHT22;2927;49.366;8.530;2023-12-20T12:34:34;6.70;1.00
5802;DHT22;2927;49.366;8.530;2023-12-20T12:37:01;6.70;1.00
5802;DHT22;2927;49.366;8.530;2023-12-20T12:39:26;6.70;1.00
5802;DHT22;2927;49.366;8.530;2023-12-20T12:41:52;6.70;99.90
5802;DHT22;2927;49.366;8.530;2023-12-20T12:44:18;6.70;1.00
5802;DHT22;2927;49.366;8.530;2023-12-20T12:46:45;6.70;1.00
5802;DHT22;2927;49.366;8.530;2023-12-20T12:49:11;6.70;99.90
5802;DHT22;2927;49.366;8.530;2023-12-20T12:51:37;6.70;1.00
5802;DHT22;2927;49.366;8.530;2023-12-20T12:54:02;6.70;1.00
5802;DHT22;2927;49.366;8.530;2023-12-20T12:56:29;6.60;1.00
5802;DHT22;2927;49.366;8.530;2023-12-20T12:58:54;6.60;1.00
5802;DHT22;2927;49.366;8.530;2023-12-20T13:01:20;6.50;1.00
5802;DHT22;2927;49.366;8.530;2023-12-20T13:03:46;6.60;1.00
5802;DHT22;2927;49.366;8.530;2023-12-20T13:06:12;6.50;1.00
5802;DHT22;2927;49.366;8.530;2023-12-20T13:08:38;6.50;1.00
5802;DHT22;2927;49.366;8.530;2023-12-20T13:11:03;6.50;1.00
5802;DHT22;2927;49.366;8.530;2023-12-20T13:13:30;6.50;1.00
5802;DHT22;2927;49.366;8.530;2023-12-20T13:15:56;6.40;99.90
5802;DHT22;2927;49.366;8.530;2023-12-20T13:18:22;6.40;38.30
5802;DHT22;2927;49.366;8.530;2023-12-20T13:20:48;6.40;99.90
5802;DHT22;2927;49.366;8.530;2023-12-20T13:23:14;6.40;99.90
5802;DHT22;2927;49.366;8.530;2023-12-20T13:25:40;6.40;1.00
5802;DHT22;2927;49.366;8.530;2023-12-20T13:28:06;6.30;99.90
5802;DHT22;2927;49.366;8.530;2023-12-20T13:30:32;6.30;1.00
5802;DHT22;2927;49.366;8.530;2023-12-20T13:32:57;6.30;1.00
5802;DHT22;2927;49.366;8.530;2023-12-20T13:35:23;6.30;99.90
5802;DHT22;2927;49.366;8.530;2023-12-20T13:37:49;6.40;1.00
5802;DHT22;2927;49.366;8.530;2023-12-20T13:40:14;6.40;99.90
5802;DHT22;2927;49.366;8.530;2023-12-20T13:42:40;6.40;99.90
5802;DHT22;2927;49.366;8.530;2023-12-20T13:45:06;6.50;1.00
5802;DHT22;2927;49.366;8.530;2023-12-20T13:47:32;6.50;1.00
5802;DHT22;2927;49.366;8.530;2023-12-20T13:49:58;6.60;1.00
5802;DHT22;2927;49.366;8.530;2023-12-20T13:52:24;6.60;1.00
5802;DHT22;2927;49.366;8.530;2023-12-20T13:54:49;6.60;1.00
5802;DHT22;2927;49.366;8.530;2023-12-20T13:57:15;6.60;1.00
5802;DHT22;2927;49.366;8.530;2023-12-20T13:59:40;6.50;1.00
5802;DHT22;2927;49.366;8.530;2023-12-20T14:02:06;6.50;1.00
5802;DHT22;2927;49.366;8.530;2023-12-20T14:04:31;6.50;1.00
5802;DHT22;2927;49.366;8.530;2023-12-20T14:06:57;6.50;44.70
5802;DHT22;2927;49.366;8.530;2023-12-20T14:09:23;6.50;1.00
5802;DHT22;2927;49.366;8.530;2023-12-20T14:11:49;6.50;1.00
5802;DHT22;2927;49.366;8.530;2023-12-20T14:14:14;6.50;99.90
5802;DHT22;2927;49.366;8.530;2023-12-20T14:16:40;6.50;1.00
5802;DHT22;2927;49.366;8.530;2023-12-20T14:19:06;6.50;1.00
5802;DHT22;2927;49.366;8.530;2023-12-20T14:21:34;6.50;1.00
5802;DHT22;2927;49.366;8.530;2023-12-20T14:24:00;6.50;1.00
5802;DHT22;2927;49.366;8.530;2023-12-20T14:26:26;6.50;1.00
5802;DHT22;2927;49.366;8.530;2023-12-20T14:28:53;6.60;1.00
5802;DHT22;2927;49.366;8.530;2023-12-20T14:31:18;6.60;99.90
5802;DHT22;2927;49.366;8.530;2023-12-20T14:33:44;6.60;99.90
5802;DHT22;2927;49.366;8.530;2023-12-20T14:36:11;6.60;1.00
5802;DHT22;2927;49.366;8.530;2023-12-20T14:38:37;6.60;1.00
5802;DHT22;2927;49.366;8.530;2023-12-20T14:41:03;6.60;1.00
5802;DHT22;2927;49.366;8.530;2023-12-20T14:43:34;6.60;99.90
5802;DHT22;2927;49.366;8.530;2023-12-20T14:45:59;6.60;99.90
5802;DHT22;2927;49.366;8.530;2023-12-20T14:48:25;6.50;1.00
5802;DHT22;2927;49.366;8.530;2023-12-20T14:50:52;6.50;1.00
5802;DHT22;2927;49.366;8.530;2023-12-20T14:53:18;6.50;1.00
5802;DHT22;2927;49.366;8.530;2023-12-20T14:55:44;6.40;1.00
5802;DHT22;2927;49.366;8.530;2023-12-20T14:58:10;6.40;1.00
5802;DHT22;2927;49.366;8.530;2023-12-20T15:00:35;6.40;1.00
5802;DHT22;2927;49.366;8.530;2023-12-20T15:03:01;6.30;99.90
5802;DHT22;2927;49.366;8.530;2023-12-20T15:05:26;6.30;99.90
5802;DHT22;2927;49.366;8.530;2023-12-20T15:07:52;6.30;1.00
5802;DHT22;2927;49.366;8.530;2023-12-20T15:10:18;6.30;1.00
5802;DHT22;2927;49.366;8.530;2023-12-20T15:12:44;6.30;99.90
5802;DHT22;2927;49.366;8.530;2023-12-20T15:15:11;6.30;1.00
5802;DHT22;2927;49.366;8.530;2023-12-20T15:17:36;6.30;1.00
5802;DHT22;2927;49.366;8.530;2023-12-20T15:20:03;6.20;1.00
5802;DHT22;2927;49.366;8.530;2023-12-20T15:22:30;6.20;1.00
5802;DHT22;2927;49.366;8.530;2023-12-20T15:24:55;6.20;1.00
5802;DHT22;2927;49.366;8.530;2023-12-20T15:27:21;6.20;99.90
5802;DHT22;2927;49.366;8.530;2023-12-20T15:29:46;6.20;99.90
5802;DHT22;2927;49.366;8.530;2023-12-20T15:32:12;6.20;99.90
5802;DHT22;2927;49.366;8.530;2023-12-20T15:34:38;6.10;35.80
5802;DHT22;2927;49.366;8.530;2023-12-20T15:37:03;6.10;99.90
5802;DHT22;2927;49.366;8.530;2023-12-20T15:39:29;6.20;1.00
5802;DHT22;2927;49.366;8.530;2023-12-20T15:41:55;6.10;1.00
5802;DHT22;2927;49.366;8.530;2023-12-20T15:44:20;6.10;1.00
5802;DHT22;2927;49.366;8.530;2023-12-20T15:46:46;6.10;99.90
5802;DHT22;2927;49.366;8.530;2023-12-20T15:49:11;6.00;1.00
5802;DHT22;2927;49.366;8.530;2023-12-20T15:51:37;6.00;1.00
5802;DHT22;2927;49.366;8.530;2023-12-20T15:54:03;6.00;1.00
5802;DHT22;2927;49.366;8.530;2023-12-20T15:56:32;5.90;99.90
5802;DHT22;2927;49.366;8.530;2023-12-20T15:58:58;5.90;1.00
5802;DHT22;2927;49.366;8.530;2023-12-20T16:01:25;5.90;1.00
5802;DHT22;2927;49.366;8.530;2023-12-20T16:03:50;5.90;1.00
5802;DHT22;2927;49.366;8.530;2023-12-20T16:06:16;5.90;1.00
5802;DHT22;2927;49.366;8.530;2023-12-20T16:08:42;5.90;99.90
5802;DHT22;2927;49.366;8.530;2023-12-20T16:11:08;5.90;1.00
5802;DHT22;2927;49.366;8.530;2023-12-20T16:13:34;5.90;81.60
5802;DHT22;2927;49.366;8.530;2023-12-20T16:16:03;5.90;1.00
5802;DHT22;2927;49.366;8.530;2023-12-20T16:18:29;6.00;1.00
5802;DHT22;2927;49.366;8.530;2023-12-20T16:20:56;6.00;1.00